createdAt,value
2023-05-12T00:01:42.162Z,43.70
2023-05-12T00:04:09.471Z,43.47
2023-05-12T00:06:36.850Z,43.65
2023-05-12T00:09:04.179Z,43.66
2023-05-12T00:11:31.387Z,43.69
2023-05-12T00:13:58.502Z,43.75
2023-05-12T00:16:25.721Z,43.60
2023-05-12T00:18:53.119Z,43.57
2023-05-12T00:21:20.394Z,43.93
2023-05-12T00:23:47.553Z,43.65
2023-05-12T00:26:14.717Z,43.84
2023-05-12T00:28:44.200Z,43.33
2023-05-12T00:31:11.381Z,43.43
2023-05-12T00:33:38.399Z,43.74
2023-05-12T00:36:06.152Z,43.45
2023-05-12T00:38:34.634Z,43.22
2023-05-12T00:41:01.814Z,43.22
2023-05-12T00:43:28.875Z,43.27
2023-05-12T00:45:57.081Z,42.90
2023-05-12T00:48:24.713Z,42.79
2023-05-12T00:50:52.148Z,42.95
2023-05-12T00:53:19.371Z,42.73
2023-05-12T00:55:46.800Z,43.07
2023-05-12T00:58:14.660Z,43.04
2023-05-12T01:00:41.871Z,43.10
2023-05-12T01:03:09.577Z,43.00
2023-05-12T01:05:50.547Z,43.19
2023-05-12T01:08:18.017Z,42.95
2023-05-12T01:10:46.830Z,42.90
2023-05-12T01:13:16.545Z,42.78
2023-05-12T01:15:47.755Z,43.02
2023-05-12T01:18:16.433Z,44.17
2023-05-12T01:20:44.888Z,45.22
2023-05-12T01:23:17.288Z,44.83
2023-05-12T01:25:49.510Z,45.24
2023-05-12T01:28:17.628Z,45.07
2023-05-12T01:30:45.586Z,45.80
2023-05-12T01:33:13.720Z,45.90
2023-05-12T01:35:40.957Z,46.16
2023-05-12T01:38:08.090Z,46.25
2023-05-12T01:40:38.727Z,46.15
2023-05-12T01:43:06.247Z,46.56
2023-05-12T01:45:33.735Z,46.65
2023-05-12T01:48:01.278Z,46.51
2023-05-12T01:50:28.606Z,46.67
2023-05-12T01:52:56.269Z,46.65
2023-05-12T01:55:23.411Z,46.46
2023-05-12T01:57:54.387Z,47.00
2023-05-12T02:03:23.146Z,46.76
2023-05-12T02:05:51.006Z,46.58
2023-05-12T02:08:18.211Z,46.89
2023-05-12T02:10:45.391Z,46.60
2023-05-12T02:13:12.612Z,47.09
2023-05-12T02:15:40.463Z,47.02
2023-05-12T02:18:08.565Z,46.83
2023-05-12T02:20:36.420Z,47.50
2023-05-12T02:23:03.843Z,47.31
2023-05-12T02:25:33.166Z,47.60
2023-05-12T02:28:00.317Z,47.05
2023-05-12T02:30:27.880Z,47.67
2023-05-12T02:32:55.414Z,47.19
2023-05-12T02:35:22.968Z,47.43
2023-05-12T02:37:50.256Z,47.24
2023-05-12T02:40:17.514Z,47.16
2023-05-12T02:42:45.795Z,46.72
2023-05-12T02:45:13.346Z,46.32
2023-05-12T02:47:41.391Z,46.18
2023-05-12T02:50:09.775Z,46.38
2023-05-12T02:52:36.915Z,45.75
2023-05-12T02:55:04.703Z,46.08
2023-05-12T02:57:34.270Z,45.85
2023-05-12T03:00:05.022Z,46.13
2023-05-12T03:02:36.426Z,45.75
2023-05-12T03:05:04.303Z,45.64
2023-05-12T03:07:31.611Z,45.70
2023-05-12T03:09:59.306Z,45.41
2023-05-12T03:12:26.415Z,45.22
2023-05-12T03:14:53.496Z,45.37
2023-05-12T03:17:20.637Z,45.31
2023-05-12T03:19:49.311Z,45.27
2023-05-12T03:22:18.175Z,45.15
2023-05-12T03:24:45.484Z,45.06
2023-05-12T03:27:12.713Z,45.15
2023-05-12T03:29:39.784Z,45.54
2023-05-12T03:32:10.709Z,45.34
2023-05-12T03:34:38.374Z,45.27
2023-05-12T03:37:05.579Z,45.61
2023-05-12T03:39:32.840Z,45.40
2023-05-12T03:41:59.988Z,45.85
2023-05-12T03:44:27.234Z,46.12
2023-05-12T03:46:54.316Z,46.15
2023-05-12T03:49:21.415Z,46.41
2023-05-12T03:51:48.432Z,46.47
2023-05-12T03:54:15.683Z,47.14
2023-05-12T03:56:42.792Z,46.98
2023-05-12T03:59:12.138Z,47.20
2023-05-12T04:01:39.840Z,47.11
2023-05-12T04:04:07.059Z,46.98
2023-05-12T04:06:34.584Z,47.04
2023-05-12T04:09:01.836Z,47.09
2023-05-12T04:11:29.271Z,46.76
2023-05-12T04:13:57.050Z,47.04
2023-05-12T04:16:24.260Z,47.08
2023-05-12T04:18:52.050Z,46.96
2023-05-12T04:21:19.066Z,47.23
2023-05-12T04:23:46.564Z,47.15
2023-05-12T04:26:13.755Z,47.27
2023-05-12T04:28:40.983Z,47.51
2023-05-12T04:31:08.824Z,47.13
2023-05-12T04:33:37.443Z,47.71
2023-05-12T04:36:05.930Z,47.10
2023-05-12T04:38:33.034Z,47.52
2023-05-12T04:41:01.049Z,47.30
2023-05-12T04:46:00.152Z,47.30
2023-05-12T04:48:29.369Z,47.18
2023-05-12T04:51:00.240Z,47.48
2023-05-12T04:53:28.237Z,47.64
2023-05-12T04:55:56.831Z,47.27
2023-05-12T04:58:26.133Z,47.48
2023-05-12T05:00:54.025Z,47.78
2023-05-12T05:03:21.759Z,47.52
2023-05-12T05:05:49.273Z,47.81
2023-05-12T05:08:17.041Z,47.58
2023-05-12T05:10:44.450Z,47.63
2023-05-12T05:13:11.531Z,47.62
2023-05-12T05:15:38.870Z,47.70
2023-05-12T05:18:06.234Z,47.53
2023-05-12T05:20:34.944Z,47.44
2023-05-12T05:23:02.405Z,47.45
2023-05-12T05:25:29.655Z,46.95
2023-05-12T05:27:56.950Z,47.25
2023-05-12T05:30:31.293Z,47.12
2023-05-12T05:32:58.425Z,47.06
2023-05-12T05:35:25.547Z,46.88
2023-05-12T05:37:54.735Z,47.16
2023-05-12T05:40:23.414Z,47.09
2023-05-12T05:42:51.399Z,47.03
2023-05-12T05:45:18.811Z,47.61
2023-05-12T05:47:52.595Z,46.42
2023-05-12T05:50:21.708Z,46.67
2023-05-12T05:52:49.980Z,46.76
2023-05-12T05:55:17.268Z,46.42
2023-05-12T05:57:44.777Z,45.78
2023-05-12T06:00:14.426Z,46.12
2023-05-12T06:02:45.082Z,45.43
2023-05-12T06:05:17.462Z,45.45
2023-05-12T06:07:48.291Z,45.27
2023-05-12T06:10:19.688Z,45.50
2023-05-12T06:12:47.529Z,45.36
2023-05-12T06:15:15.115Z,45.99
2023-05-12T06:17:42.620Z,45.16
2023-05-12T06:20:10.312Z,45.64
2023-05-12T06:22:37.449Z,45.75
2023-05-12T06:25:04.966Z,45.46
2023-05-12T06:27:32.064Z,45.69
2023-05-12T06:29:59.261Z,45.15
2023-05-12T06:32:26.617Z,44.76
2023-05-12T06:34:53.961Z,44.88
2023-05-12T06:37:21.181Z,44.80
2023-05-12T06:39:48.263Z,44.77
2023-05-12T06:42:16.203Z,44.80
2023-05-12T06:44:44.394Z,44.62
2023-05-12T06:47:14.480Z,44.80
2023-05-12T06:49:41.639Z,44.82
2023-05-12T06:52:09.080Z,44.62
2023-05-12T06:54:36.311Z,44.83
2023-05-12T06:57:03.454Z,44.20
2023-05-12T06:59:31.131Z,43.65
2023-05-12T07:01:58.532Z,43.88
2023-05-12T07:04:27.236Z,43.66
2023-05-12T07:06:54.404Z,43.06
2023-05-12T07:09:24.234Z,43.04
2023-05-12T07:12:05.035Z,43.04
2023-05-12T07:14:32.444Z,43.23
2023-05-12T07:16:59.649Z,42.67
2023-05-12T07:19:27.313Z,42.62
2023-05-12T07:21:59.132Z,41.96
2023-05-12T07:24:27.997Z,41.65
2023-05-12T07:26:55.146Z,41.97
2023-05-12T07:29:22.769Z,41.54
2023-05-12T07:31:50.244Z,41.73
2023-05-12T07:34:17.407Z,41.91
2023-05-12T07:36:44.718Z,41.79
2023-05-12T07:39:13.127Z,42.05
2023-05-12T07:41:40.248Z,41.39
2023-05-12T07:44:07.653Z,41.72
2023-05-12T07:46:34.953Z,41.16
2023-05-12T07:49:02.705Z,41.62
2023-05-12T07:51:29.904Z,41.56
2023-05-12T07:53:58.272Z,41.13
2023-05-12T07:56:25.514Z,40.52
2023-05-12T07:58:52.716Z,40.57
2023-05-12T08:01:20.040Z,40.33
2023-05-12T08:03:47.356Z,40.24
2023-05-12T08:06:14.809Z,40.04
2023-05-12T08:08:41.932Z,39.60
2023-05-12T08:11:09.124Z,39.55
2023-05-12T08:13:39.561Z,39.07
2023-05-12T08:16:06.883Z,39.85
2023-05-12T08:18:34.400Z,38.93
2023-05-12T08:21:01.621Z,38.82
2023-05-12T08:23:28.972Z,37.92
2023-05-12T08:25:56.085Z,37.71
2023-05-12T08:28:23.265Z,37.56
2023-05-12T08:30:50.910Z,37.50
2023-05-12T08:33:18.096Z,37.17
2023-05-12T08:35:45.405Z,36.21
2023-05-12T08:38:12.722Z,35.95
2023-05-12T08:40:58.421Z,35.24
2023-05-12T08:43:31.463Z,35.13
2023-05-12T08:45:59.533Z,35.01
2023-05-12T08:48:28.289Z,35.29
2023-05-12T08:50:57.238Z,34.31
2023-05-12T08:53:26.178Z,35.55
2023-05-12T08:57:10.035Z,35.45
2023-05-12T08:58:43.283Z,35.47
2023-05-12T09:01:14.411Z,34.88
2023-05-12T09:03:42.242Z,34.61
2023-05-12T09:06:12.687Z,34.05
2023-05-12T09:08:41.227Z,34.55
2023-05-12T09:11:13.411Z,34.86
2023-05-12T09:14:00.562Z,34.44
2023-05-12T09:16:31.770Z,34.75
2023-05-12T09:19:00.520Z,35.13
2023-05-12T09:21:28.783Z,36.15
2023-05-12T09:24:07.233Z,36.15
2023-05-12T09:26:51.591Z,35.96
2023-05-12T09:29:30.889Z,36.33
2023-05-12T09:32:02.521Z,35.91
2023-05-12T09:34:33.307Z,36.22
2023-05-12T09:37:02.569Z,36.12
2023-05-12T09:39:29.897Z,37.34
2023-05-12T09:41:57.587Z,38.08
2023-05-12T09:44:25.939Z,37.12
2023-05-12T09:46:53.273Z,37.67
2023-05-12T09:49:26.960Z,37.92
2023-05-12T09:51:57.006Z,38.51
2023-05-12T09:54:31.542Z,39.24
2023-05-12T09:57:05.060Z,38.24
2023-05-12T09:59:39.326Z,38.46
2023-05-12T10:02:09.881Z,38.32
2023-05-12T10:05:01.312Z,38.61
2023-05-12T10:07:29.869Z,38.57
2023-05-12T10:10:01.559Z,38.76
2023-05-12T10:12:29.091Z,38.64
2023-05-12T10:14:57.142Z,39.40
2023-05-12T10:17:26.970Z,38.60
2023-05-12T10:19:56.037Z,38.25
2023-05-12T10:22:23.643Z,38.31
2023-05-12T10:24:52.448Z,38.49
2023-05-12T10:27:22.362Z,38.57
2023-05-12T10:29:51.521Z,37.66
2023-05-12T10:32:20.909Z,37.70
2023-05-12T10:34:48.386Z,38.39
2023-05-12T10:37:15.606Z,39.35
2023-05-12T10:39:51.745Z,40.34
2023-05-12T10:42:26.132Z,40.68
2023-05-12T10:44:58.433Z,40.43
2023-05-12T10:47:30.932Z,41.43
2023-05-12T10:50:01.548Z,41.67
2023-05-12T10:52:29.466Z,40.73
2023-05-12T10:55:04.324Z,40.82
2023-05-12T10:57:33.604Z,41.07
2023-05-12T11:00:05.052Z,41.31
2023-05-12T11:02:35.906Z,40.71
2023-05-12T11:05:11.098Z,40.46
2023-05-12T11:07:39.818Z,40.84
2023-05-12T11:10:08.147Z,41.67
2023-05-12T11:12:36.694Z,40.38
2023-05-12T11:15:05.782Z,40.52
2023-05-12T11:17:33.445Z,40.77
2023-05-12T11:20:03.411Z,41.28
2023-05-12T11:22:30.636Z,41.58
2023-05-12T11:24:57.921Z,41.63
2023-05-12T11:27:25.254Z,41.22
2023-05-12T11:30:01.069Z,40.03
2023-05-12T11:32:29.853Z,40.21
2023-05-12T11:35:12.052Z,41.08
2023-05-12T11:37:41.183Z,40.75
2023-05-12T11:40:23.214Z,40.84
2023-05-12T11:42:53.161Z,40.25
2023-05-12T11:45:27.149Z,40.45
2023-05-12T11:48:07.359Z,41.23
2023-05-12T11:50:37.277Z,41.38
2023-05-12T11:53:07.377Z,41.46
2023-05-12T11:55:34.944Z,40.74
2023-05-12T11:58:03.887Z,41.72
2023-05-12T12:00:35.827Z,43.69
2023-05-12T12:03:12.919Z,46.13
2023-05-12T12:05:42.402Z,46.06
2023-05-12T12:08:15.740Z,46.31
2023-05-12T12:10:47.022Z,46.06
2023-05-12T12:13:21.314Z,46.74
2023-05-12T12:15:49.453Z,46.68
2023-05-12T12:18:16.853Z,46.00
2023-05-12T12:20:44.346Z,46.06
2023-05-12T12:23:11.450Z,46.53
2023-05-12T12:25:38.813Z,46.21
2023-05-12T12:28:06.153Z,45.95
2023-05-12T12:30:36.886Z,45.74
2023-05-12T12:33:04.217Z,46.11
2023-05-12T12:35:31.506Z,45.54
2023-05-12T12:38:02.023Z,46.31
2023-05-12T12:40:29.478Z,45.37
2023-05-12T12:42:56.723Z,45.36
2023-05-12T12:45:24.137Z,45.13
2023-05-12T12:47:55.613Z,45.68
2023-05-12T12:50:24.471Z,45.85
2023-05-12T12:52:53.108Z,46.68
2023-05-12T12:55:20.930Z,47.57
2023-05-12T12:57:48.660Z,47.19
2023-05-12T13:00:16.310Z,48.19
2023-05-12T13:02:44.988Z,47.21
2023-05-12T13:05:15.338Z,48.53
2023-05-12T13:07:42.630Z,47.41
2023-05-12T13:10:10.565Z,48.37
2023-05-12T13:12:40.551Z,48.67
2023-05-12T13:15:12.633Z,48.13
2023-05-12T13:17:43.621Z,47.82
2023-05-12T13:20:11.563Z,47.24
2023-05-12T13:22:41.119Z,47.81
2023-05-12T13:25:21.658Z,47.49
2023-05-12T13:27:52.655Z,47.97
2023-05-12T13:30:20.851Z,48.91
2023-05-12T13:32:48.666Z,48.67
2023-05-12T13:35:16.509Z,48.68
2023-05-12T13:37:43.914Z,48.74
2023-05-12T13:40:14.573Z,49.02
2023-05-12T13:42:45.346Z,49.04
2023-05-12T13:45:14.898Z,48.83
2023-05-12T13:47:42.655Z,49.50
2023-05-12T13:50:14.192Z,48.94
2023-05-12T13:52:44.923Z,48.85
2023-05-12T13:55:21.007Z,49.40
2023-05-12T13:57:52.901Z,48.38
2023-05-12T14:00:23.591Z,48.29
2023-05-12T14:02:50.776Z,48.36
2023-05-12T14:05:21.196Z,48.00
2023-05-12T14:07:49.194Z,48.23
2023-05-12T14:10:19.530Z,48.14
2023-05-12T14:12:54.617Z,48.27
2023-05-12T14:15:32.986Z,47.87
2023-05-12T14:18:04.029Z,47.55
2023-05-12T14:20:31.612Z,47.03
2023-05-12T14:22:58.722Z,46.70
2023-05-12T14:25:25.989Z,47.10
2023-05-12T14:27:53.480Z,47.28
2023-05-12T14:30:21.982Z,46.82
2023-05-12T14:32:50.091Z,48.12
2023-05-12T14:35:29.160Z,48.08
2023-05-12T14:37:56.985Z,47.64
2023-05-12T14:40:24.581Z,48.52
2023-05-12T14:42:52.646Z,48.05
2023-05-12T14:45:22.334Z,48.55
2023-05-12T14:47:50.515Z,48.92
2023-05-12T14:50:21.722Z,50.22
2023-05-12T14:52:49.444Z,50.93
2023-05-12T14:55:17.668Z,51.31
2023-05-12T14:57:45.720Z,50.35
2023-05-12T15:00:15.344Z,50.63
2023-05-12T15:02:44.425Z,49.88
2023-05-12T15:05:14.128Z,51.09
2023-05-12T15:07:41.663Z,49.78
2023-05-12T15:10:09.520Z,51.13
2023-05-12T15:12:36.865Z,52.52
2023-05-12T15:15:05.591Z,53.59
2023-05-12T15:17:33.167Z,54.62
2023-05-12T15:20:01.314Z,55.04
2023-05-12T15:22:31.603Z,55.19
2023-05-12T15:24:59.742Z,55.48
2023-05-12T15:27:27.487Z,56.10
2023-05-12T15:29:57.516Z,55.97
2023-05-12T15:32:25.008Z,57.25
2023-05-12T15:34:52.901Z,55.72
2023-05-12T15:37:19.934Z,56.36
2023-05-12T15:39:47.640Z,56.24
2023-05-12T15:42:22.239Z,56.77
2023-05-12T15:44:56.723Z,57.47
2023-05-12T15:47:26.305Z,56.92
2023-05-12T15:49:57.217Z,56.74
2023-05-12T15:52:25.028Z,56.92
2023-05-12T15:54:54.682Z,56.75
2023-05-12T15:57:22.190Z,56.78
2023-05-12T15:59:50.190Z,56.64
2023-05-12T16:02:18.797Z,57.24
2023-05-12T16:04:46.049Z,56.53
2023-05-12T16:07:13.078Z,57.71
2023-05-12T16:09:40.404Z,56.75
2023-05-12T16:12:09.307Z,57.45
2023-05-12T16:14:36.461Z,57.84
2023-05-12T16:17:04.123Z,56.62
2023-05-12T16:19:31.639Z,56.83
2023-05-12T16:22:02.275Z,57.52
2023-05-12T16:24:31.811Z,57.28
2023-05-12T16:27:01.892Z,57.63
2023-05-12T16:29:31.922Z,56.82
2023-05-12T16:31:59.512Z,57.32
2023-05-12T16:34:29.607Z,57.73
2023-05-12T16:36:56.778Z,57.56
2023-05-12T16:39:23.936Z,57.70
2023-05-12T16:41:51.462Z,57.79
2023-05-12T16:44:18.590Z,57.17
2023-05-12T16:46:45.814Z,56.91
2023-05-12T16:49:13.173Z,56.82
2023-05-12T16:51:40.658Z,57.56
2023-05-12T16:54:07.954Z,57.44
2023-05-12T16:56:35.347Z,56.98
2023-05-12T16:59:02.873Z,56.74
2023-05-12T17:01:31.858Z,57.26
2023-05-12T17:04:01.500Z,57.94
2023-05-12T17:06:28.755Z,56.68
2023-05-12T17:08:55.953Z,56.65
2023-05-12T17:11:24.984Z,56.64
2023-05-12T17:13:56.162Z,56.66
2023-05-12T17:16:29.114Z,56.07
2023-05-12T17:21:40.752Z,56.60
2023-05-12T17:24:14.466Z,56.51
2023-05-12T17:26:45.311Z,56.56
2023-05-12T17:29:15.616Z,56.74
2023-05-12T17:31:43.370Z,56.59
2023-05-12T17:34:13.718Z,56.14
2023-05-12T17:36:41.280Z,56.67
2023-05-12T17:39:19.793Z,56.55
2023-05-12T17:41:47.465Z,56.35
2023-05-12T17:44:14.879Z,56.55
2023-05-12T17:46:42.173Z,55.99
2023-05-12T17:49:14.402Z,56.07
2023-05-12T17:51:44.908Z,55.90
2023-05-12T17:54:15.627Z,56.40
2023-05-12T17:56:44.807Z,56.37
2023-05-12T17:59:12.681Z,56.07
2023-05-12T18:01:39.988Z,56.32
2023-05-12T18:04:10.344Z,56.35
2023-05-12T18:06:41.382Z,56.13
2023-05-12T18:09:09.623Z,56.12
2023-05-12T18:11:37.322Z,56.42
2023-05-12T18:14:06.278Z,56.36
2023-05-12T18:16:35.887Z,56.48
2023-05-12T18:19:04.148Z,54.98
2023-05-12T18:21:31.376Z,54.74
2023-05-12T18:24:01.908Z,54.52
2023-05-12T18:26:30.813Z,55.48
2023-05-12T18:28:58.420Z,55.04
2023-05-12T18:31:26.955Z,55.04
2023-05-12T18:33:54.118Z,55.22
2023-05-12T18:36:22.038Z,54.88
2023-05-12T18:38:49.254Z,54.61
2023-05-12T18:41:17.133Z,54.51
2023-05-12T18:43:45.402Z,54.64
2023-05-12T18:46:12.893Z,55.12
2023-05-12T18:48:51.247Z,55.63
2023-05-12T18:51:20.742Z,54.89
2023-05-12T18:53:48.417Z,55.37
2023-05-12T18:56:16.030Z,54.22
2023-05-12T18:58:43.082Z,53.63
2023-05-12T19:01:10.703Z,53.80
2023-05-12T19:03:38.201Z,53.74
2023-05-12T19:06:07.376Z,53.91
2023-05-12T19:08:34.490Z,53.91
2023-05-12T19:11:01.633Z,53.89
2023-05-12T19:13:28.748Z,54.39
2023-05-12T19:15:55.795Z,53.76
2023-05-12T19:18:23.679Z,54.10
2023-05-12T19:20:52.596Z,54.08
2023-05-12T19:23:24.615Z,54.15
2023-05-12T19:25:52.064Z,53.91
2023-05-12T19:28:19.146Z,54.14
2023-05-12T19:30:46.399Z,53.82
2023-05-12T19:33:15.295Z,53.86
2023-05-12T19:35:43.839Z,54.04
2023-05-12T19:38:13.730Z,54.15
2023-05-12T19:40:40.846Z,54.07
2023-05-12T19:43:10.775Z,54.36
2023-05-12T19:45:38.127Z,54.23
2023-05-12T19:48:05.782Z,54.02
2023-05-12T19:50:34.463Z,54.38
2023-05-12T19:53:01.905Z,54.09
2023-05-12T19:55:33.081Z,54.07
2023-05-12T19:58:02.272Z,54.19
2023-05-12T20:00:29.736Z,53.48
2023-05-12T20:02:59.988Z,53.94
2023-05-12T20:05:31.417Z,53.64
2023-05-12T20:08:01.497Z,53.27
2023-05-12T20:10:30.121Z,53.30
2023-05-12T20:13:03.942Z,52.62
2023-05-12T20:15:32.490Z,52.39
2023-05-12T20:18:01.425Z,52.86
2023-05-12T20:20:50.061Z,52.81
2023-05-12T20:23:17.838Z,52.33
2023-05-12T20:25:46.504Z,52.67
2023-05-12T20:28:14.455Z,52.65
2023-05-12T20:31:03.739Z,51.10
2023-05-12T20:33:41.164Z,50.76
2023-05-12T20:36:11.222Z,51.30
2023-05-12T20:38:56.620Z,51.67
2023-05-12T20:41:28.581Z,51.67
2023-05-12T20:43:57.176Z,51.51
2023-05-12T20:46:31.823Z,51.66
2023-05-12T20:49:09.552Z,51.86
2023-05-12T20:51:40.765Z,51.95
2023-05-12T20:54:15.099Z,51.94
2023-05-12T20:56:45.736Z,51.80
2023-05-12T20:59:14.305Z,52.10
2023-05-12T21:01:51.374Z,52.18
2023-05-12T21:04:25.999Z,52.44
2023-05-12T21:07:15.187Z,53.13
2023-05-12T21:10:11.166Z,53.31
2023-05-12T21:12:51.202Z,53.92
2023-05-12T21:15:19.755Z,53.83
2023-05-12T21:17:47.380Z,54.00
2023-05-12T21:20:20.149Z,54.29
2023-05-12T21:22:59.133Z,54.68
2023-05-12T21:25:37.502Z,54.80
2023-05-12T21:28:08.020Z,54.70
2023-05-12T21:30:44.889Z,54.58
2023-05-12T21:33:18.198Z,54.71
2023-05-12T21:37:15.967Z,54.76
2023-05-12T21:39:44.089Z,54.98
2023-05-12T21:42:11.386Z,54.62
2023-05-12T21:44:41.341Z,55.07
2023-05-12T21:47:09.737Z,55.05
2023-05-12T21:49:37.101Z,55.31
2023-05-12T21:52:04.592Z,55.00
2023-05-12T21:54:34.220Z,55.15
2023-05-12T21:57:01.705Z,55.10
2023-05-12T21:59:29.636Z,55.04
2023-05-12T22:01:57.570Z,54.91
2023-05-12T22:04:24.865Z,55.01
2023-05-12T22:06:58.209Z,55.92
2023-05-12T22:09:31.752Z,55.76
2023-05-12T22:11:59.070Z,55.68
2023-05-12T22:14:26.168Z,55.74
2023-05-12T22:16:53.422Z,55.77
2023-05-12T22:19:24.435Z,56.16
2023-05-12T22:24:49.297Z,55.81
2023-05-12T22:27:36.594Z,55.44
2023-05-12T22:30:24.171Z,55.74
2023-05-12T22:33:04.448Z,55.99
2023-05-12T22:35:35.072Z,55.79
2023-05-12T22:38:07.951Z,55.49
2023-05-12T22:40:39.974Z,55.50
2023-05-12T22:43:25.112Z,56.02
2023-05-12T22:46:11.401Z,55.88
2023-05-12T22:48:58.713Z,55.76
2023-05-12T22:51:29.629Z,55.77
2023-05-12T22:54:07.939Z,56.07
2023-05-12T22:56:45.766Z,56.37
2023-05-12T22:59:20.579Z,56.07
2023-05-12T23:02:37.896Z,56.73
2023-05-12T23:05:28.127Z,56.09
2023-05-12T23:08:13.288Z,56.45
2023-05-12T23:10:46.337Z,56.45
2023-05-12T23:14:36.378Z,56.39
2023-05-12T23:17:08.342Z,56.65
2023-05-12T23:19:37.321Z,56.37
2023-05-12T23:22:08.165Z,56.59
2023-05-12T23:24:39.372Z,56.57
2023-05-12T23:27:09.544Z,56.60
2023-05-12T23:29:43.247Z,56.82
2023-05-12T23:32:14.567Z,56.82
2023-05-12T23:34:45.453Z,56.66
2023-05-12T23:37:13.209Z,57.21
2023-05-12T23:39:57.223Z,56.95
2023-05-12T23:42:25.009Z,56.84
2023-05-12T23:44:55.898Z,57.33
2023-05-12T23:47:30.455Z,57.00
2023-05-12T23:50:05.812Z,57.04
2023-05-12T23:52:37.755Z,57.06
2023-05-12T23:55:07.992Z,56.88
2023-05-12T23:57:40.914Z,56.87
